createdAt,value
2019-03-08T00:02:55.200Z,99007.27
2019-03-08T00:08:02.247Z,99005.03
2019-03-08T00:13:09.196Z,99010.89
2019-03-08T00:18:16.570Z,99010.94
2019-03-08T00:23:23.562Z,98997.83
2019-03-08T00:28:30.763Z,99007.75
2019-03-08T00:33:37.759Z,98990.67
2019-03-08T00:38:44.816Z,98985.95
2019-03-08T00:43:51.887Z,98986.36
2019-03-08T00:48:58.885Z,98976.89
2019-03-08T00:54:05.822Z,98991.03
2019-03-08T00:59:12.769Z,98995.04
2019-03-08T01:04:19.674Z,98987.91
2019-03-08T01:09:26.597Z,98982.93
2019-03-08T01:14:33.678Z,98978.81
2019-03-08T01:19:40.770Z,98993.61
2019-03-08T01:24:48.181Z,98964.27
2019-03-08T01:29:55.158Z,98941.92
2019-03-08T01:35:02.098Z,98941.31
2019-03-08T01:40:10.129Z,98944.42
2019-03-08T01:45:17.200Z,98941.44
2019-03-08T01:50:24.308Z,98968.56
2019-03-08T01:55:31.237Z,98946.48
2019-03-08T02:00:40.801Z,98957.64
2019-03-08T02:05:47.987Z,98963.42
2019-03-08T02:10:54.902Z,98968.57
2019-03-08T02:16:01.877Z,98967.95
2019-03-08T02:21:08.880Z,98968.77
2019-03-08T02:26:15.870Z,98948.15
2019-03-08T02:31:22.811Z,98955.77
2019-03-08T02:36:30.119Z,98950.52
2019-03-08T02:41:37.016Z,98964.30
2019-03-08T02:46:44.242Z,98961.64
2019-03-08T02:51:51.165Z,98945.48
2019-03-08T02:56:58.073Z,98938.33
2019-03-08T03:02:05.154Z,98952.09
2019-03-08T03:07:12.107Z,98943.86
2019-03-08T03:12:19.021Z,98941.87
2019-03-08T03:17:25.952Z,98944.59
2019-03-08T03:22:32.901Z,98945.86
2019-03-08T03:27:40.053Z,98941.47
2019-03-08T03:32:46.977Z,98940.47
2019-03-08T03:37:53.975Z,98967.70
2019-03-08T03:43:01.092Z,98951.66
2019-03-08T03:48:08.110Z,98959.44
2019-03-08T03:53:15.121Z,98974.69
2019-03-08T03:58:22.356Z,98939.85
2019-03-08T04:03:30.664Z,98948.39
2019-03-08T04:08:37.666Z,98958.80
2019-03-08T04:13:44.822Z,99004.05
2019-03-08T04:18:51.847Z,98958.63
2019-03-08T04:23:58.966Z,98971.63
2019-03-08T04:29:05.903Z,98960.57
2019-03-08T04:34:12.869Z,98952.62
2019-03-08T04:39:19.842Z,98948.19
2019-03-08T04:44:27.110Z,98953.81
2019-03-08T04:49:34.059Z,98978.20
2019-03-08T04:54:41.215Z,98967.72
2019-03-08T04:59:49.137Z,98979.25
2019-03-08T05:04:56.154Z,98969.43
2019-03-08T05:10:03.164Z,98995.65
2019-03-08T05:15:11.366Z,98989.92
2019-03-08T05:20:19.377Z,98996.59
2019-03-08T05:25:26.289Z,99042.92
2019-03-08T05:30:33.228Z,99066.05
2019-03-08T05:35:40.167Z,99012.23
2019-03-08T05:40:47.175Z,99009.48
2019-03-08T05:45:54.167Z,99021.95
2019-03-08T05:51:01.135Z,99025.72
2019-03-08T05:56:09.396Z,99024.27
2019-03-08T06:01:16.339Z,99030.89
2019-03-08T06:06:23.654Z,99037.34
2019-03-08T06:11:30.578Z,99046.00
2019-03-08T06:16:37.548Z,99048.75
2019-03-08T06:21:45.734Z,99053.73
2019-03-08T06:26:52.661Z,99053.70
2019-03-08T06:32:00.086Z,99067.09
2019-03-08T06:37:07.023Z,99088.00
2019-03-08T06:42:13.939Z,99097.77
2019-03-08T06:47:20.868Z,99104.92
2019-03-08T06:52:27.795Z,99109.67
2019-03-08T06:57:34.771Z,99135.06
2019-03-08T07:02:41.696Z,99138.56
2019-03-08T07:07:48.637Z,99160.28
2019-03-08T07:13:02.799Z,99170.72
2019-03-08T07:18:12.291Z,99185.97
2019-03-08T07:23:34.858Z,99198.63
2019-03-08T07:28:50.764Z,99225.67
2019-03-08T07:34:11.211Z,99233.44
2019-03-08T07:39:40.780Z,99235.20
2019-03-08T07:45:03.822Z,99266.54
2019-03-08T07:50:42.713Z,99306.09
2019-03-08T07:55:59.034Z,99283.59
2019-03-08T08:01:25.048Z,99284.80
2019-03-08T08:06:57.186Z,99312.59
2019-03-08T08:12:26.166Z,99303.50
2019-03-08T08:17:48.368Z,99306.23
2019-03-08T08:23:00.832Z,99317.70
2019-03-08T08:28:32.203Z,99358.44
2019-03-08T08:33:51.551Z,99337.28
2019-03-08T08:39:16.382Z,99378.09
2019-03-08T08:44:53.047Z,99374.66
2019-03-08T08:50:17.825Z,99423.38
2019-03-08T08:55:49.576Z,99437.31
2019-03-08T09:01:10.004Z,99427.61
2019-03-08T09:06:44.840Z,99464.41
2019-03-08T09:12:22.965Z,99484.20
2019-03-08T09:17:47.890Z,99536.14
2019-03-08T09:23:03.602Z,99530.73
2019-03-08T09:28:24.703Z,99516.33
2019-03-08T09:33:36.426Z,99518.88
2019-03-08T09:38:51.922Z,99553.48
2019-03-08T09:44:09.754Z,99550.70
2019-03-08T09:49:53.633Z,99578.25
2019-03-08T09:55:19.677Z,99547.59
2019-03-08T10:00:37.538Z,99542.96
2019-03-08T10:06:03.650Z,99562.97
2019-03-08T10:11:15.989Z,99554.44
2019-03-08T10:16:27.299Z,99573.77
2019-03-08T10:21:53.011Z,99597.85
2019-03-08T10:27:27.031Z,99600.06
2019-03-08T10:32:51.699Z,99609.22
2019-03-08T10:38:22.598Z,99617.18
2019-03-08T10:43:43.723Z,99617.47
2019-03-08T10:49:18.879Z,99632.07
2019-03-08T10:54:47.734Z,99648.80
2019-03-08T11:00:16.564Z,99654.55
2019-03-08T11:05:34.950Z,99661.39
2019-03-08T11:11:06.053Z,99672.80
2019-03-08T11:16:32.265Z,99718.96
2019-03-08T11:21:54.098Z,99686.52
2019-03-08T11:27:35.442Z,99712.57
2019-03-08T11:32:48.550Z,99714.72
2019-03-08T11:38:17.049Z,99746.61
2019-03-08T11:43:46.167Z,99746.47
2019-03-08T11:49:01.167Z,99742.22
2019-03-08T12:00:22.755Z,99764.98
2019-03-08T12:05:43.221Z,99794.82
2019-03-08T12:11:16.666Z,99770.31
2019-03-08T12:16:34.634Z,99793.85
2019-03-08T12:21:58.633Z,99789.67
2019-03-08T12:27:15.130Z,99778.90
2019-03-08T12:32:33.902Z,99798.25
2019-03-08T12:37:48.771Z,99808.63
2019-03-08T12:43:08.325Z,99796.72
2019-03-08T12:48:31.225Z,99822.73
2019-03-08T12:54:01.064Z,99844.46
2019-03-08T12:59:23.931Z,99835.67
2019-03-08T13:04:48.594Z,99839.82
2019-03-08T13:09:57.358Z,99839.13
2019-03-08T13:15:05.406Z,99850.66
2019-03-08T13:20:15.079Z,99861.42
2019-03-08T13:25:23.027Z,99866.29
2019-03-08T13:30:29.966Z,99860.70
2019-03-08T13:35:36.910Z,99865.55
2019-03-08T13:40:44.211Z,99879.30
2019-03-08T13:45:51.147Z,99886.28
2019-03-08T13:50:58.107Z,99902.16
2019-03-08T13:56:05.333Z,99917.05
2019-03-08T14:01:12.267Z,99918.91
2019-03-08T14:06:19.213Z,99918.44
2019-03-08T14:11:26.244Z,99928.70
2019-03-08T14:16:33.303Z,99952.98
2019-03-08T14:21:40.578Z,99949.91
2019-03-08T14:26:47.533Z,99955.09
2019-03-08T14:32:07.629Z,99947.95
2019-03-08T14:37:16.134Z,99959.52
2019-03-08T14:42:29.571Z,99959.08
2019-03-08T14:47:45.507Z,99967.89
2019-03-08T14:52:55.162Z,99972.16
2019-03-08T14:58:01.217Z,99974.66
2019-03-08T15:03:08.334Z,99976.45
2019-03-08T15:08:17.807Z,99987.01
2019-03-08T15:13:25.737Z,99980.80
2019-03-08T15:18:32.842Z,99992.77
2019-03-08T15:23:40.004Z,99980.63
2019-03-08T15:28:47.030Z,99991.46
2019-03-08T15:33:54.507Z,99999.60
2019-03-08T15:39:01.777Z,100020.81
2019-03-08T15:44:10.395Z,100015.86
2019-03-08T15:49:17.694Z,100024.27
2019-03-08T15:54:24.689Z,100033.02
2019-03-08T15:59:32.143Z,100039.48
2019-03-08T16:04:39.731Z,100055.17
2019-03-08T16:09:46.692Z,100068.42
2019-03-08T16:14:54.035Z,100065.62
2019-03-08T16:20:02.929Z,100064.39
2019-03-08T16:25:10.526Z,100065.30
2019-03-08T16:30:25.289Z,100079.22
2019-03-08T16:35:41.530Z,100074.65
2019-03-08T16:41:07.226Z,100075.30
2019-03-08T16:46:31.662Z,100082.86
2019-03-08T16:52:15.918Z,100097.09
2019-03-08T16:57:39.083Z,100104.44
2019-03-08T17:02:58.910Z,100108.85
2019-03-08T17:08:23.581Z,100117.62
2019-03-08T17:13:38.285Z,100130.95
2019-03-08T17:18:56.517Z,100136.78
2019-03-08T17:24:23.301Z,100152.81
2019-03-08T17:29:35.526Z,100160.77
2019-03-08T17:35:00.923Z,100170.95
2019-03-08T17:40:29.746Z,100183.42
2019-03-08T17:45:59.574Z,100187.98
2019-03-08T17:51:41.411Z,100196.77
2019-03-08T17:57:14.405Z,100192.89
2019-03-08T18:02:51.399Z,100199.85
2019-03-08T18:08:28.075Z,100206.51
2019-03-08T18:13:41.500Z,100207.38
2019-03-08T18:19:06.642Z,100211.95
2019-03-08T18:24:32.579Z,100221.91
2019-03-08T18:29:47.247Z,100224.77
2019-03-08T18:35:12.285Z,100220.39
2019-03-08T18:40:25.606Z,100231.38
2019-03-08T18:45:50.162Z,100219.98
2019-03-08T18:51:21.939Z,100225.25
2019-03-08T18:56:46.844Z,100239.19
2019-03-08T19:02:12.984Z,100237.65
2019-03-08T19:07:51.463Z,100235.39
2019-03-08T19:13:23.184Z,100232.80
2019-03-08T19:18:37.207Z,100234.43
2019-03-08T19:23:58.847Z,100225.28
2019-03-08T19:29:27.869Z,100225.67
2019-03-08T19:34:54.118Z,100224.91
2019-03-08T19:40:12.902Z,100228.80
2019-03-08T19:45:36.167Z,100230.30
2019-03-08T19:51:00.996Z,100240.69
2019-03-08T19:56:33.993Z,100238.93
2019-03-08T20:02:06.123Z,100252.20
2019-03-08T20:07:23.502Z,100253.94
2019-03-08T20:12:50.274Z,100252.44
2019-03-08T20:18:19.483Z,100246.26
2019-03-08T20:23:45.204Z,100257.17
2019-03-08T20:29:10.104Z,100259.08
2019-03-08T20:34:23.730Z,100260.20
2019-03-08T20:39:38.657Z,100270.47
2019-03-08T20:44:58.143Z,100265.19
2019-03-08T20:50:06.520Z,100269.41
2019-03-08T20:55:13.784Z,100266.84
2019-03-08T21:00:20.852Z,100270.43
2019-03-08T21:05:27.967Z,100275.42
2019-03-08T21:10:34.888Z,100266.55
2019-03-08T21:15:41.831Z,100264.36
2019-03-08T21:20:48.858Z,100256.94
2019-03-08T21:25:55.787Z,100247.75
2019-03-08T21:31:02.810Z,100240.53
2019-03-08T21:36:09.851Z,100226.38
2019-03-08T21:41:16.807Z,100225.66
2019-03-08T21:46:23.857Z,100232.27
2019-03-08T21:51:31.906Z,100215.42
2019-03-08T21:56:38.911Z,100213.50
2019-03-08T22:01:46.000Z,100208.05
2019-03-08T22:06:52.924Z,100206.22
2019-03-08T22:11:59.938Z,100209.81
2019-03-08T22:17:06.869Z,100188.31
2019-03-08T22:22:13.786Z,100187.34
2019-03-08T22:27:20.698Z,100178.14
2019-03-08T22:32:28.770Z,100163.95
2019-03-08T22:37:35.717Z,100146.86
2019-03-08T22:42:42.678Z,100149.34
2019-03-08T22:47:49.672Z,100142.00
2019-03-08T22:52:56.946Z,100134.63
2019-03-08T22:58:03.943Z,100132.41
2019-03-08T23:03:11.158Z,100136.78
2019-03-08T23:08:18.233Z,100117.33
2019-03-08T23:13:25.495Z,100132.05
2019-03-08T23:18:32.666Z,100128.77
2019-03-08T23:23:39.580Z,100119.42
2019-03-08T23:29:08.903Z,100116.13
2019-03-08T23:34:15.838Z,100098.92
2019-03-08T23:39:22.831Z,100080.96
2019-03-08T23:44:29.812Z,100076.32
2019-03-08T23:49:37.047Z,100069.38
2019-03-08T23:54:44.062Z,100065.70
2019-03-08T23:59:52.942Z,100069.61
